Time;durP1;ratioP1;P1;durP2;ratioP2;P2;SDS_P1;SDS_P2;PMS_P1;PMS_P2;Temp;Humidity;BMP_temperature;BMP_pressure;BME280_temperature;BME280_humidity;BME280_pressure;Samples;Min_cycle;Max_cycle;Signal;HPM_P1;HPM_P2
2021/12/02 00:00:28;;;;;;;7.77;2.07;;;5.50;94.80;;;;;;6224536;23;20091;-88
2021/12/02 00:03:47;;;;;;;;;;;;;;;;;;;;;
2021/12/02 00:06:51;;;;;;;8.07;1.92;;;5.50;94.80;;;;;;6247542;23;20392;-88
2021/12/02 00:09:25;;;;;;;7.60;2.22;;;5.50;94.80;;;;;;6199238;23;20016;-88
2021/12/02 00:12:08;;;;;;;11.10;2.25;;;5.50;94.70;;;;;;6220981;23;20008;-87
2021/12/02 00:15:01;;;;;;;7.93;2.45;;;5.50;94.70;;;;;;6245627;23;20004;-88
2021/12/02 00:18:18;;;;;;;5.47;1.58;;;5.40;94.70;;;;;;6200887;23;20008;-87
2021/12/02 00:21:07;;;;;;;6.90;1.70;;;5.40;94.70;;;;;;6246933;23;20000;-88
2021/12/02 00:23:44;;;;;;;5.97;1.75;;;5.40;94.70;;;;;;6244973;23;20353;-88
2021/12/02 00:30:00;;;;;;;9.77;2.15;;;5.40;94.80;;;;;;6273828;22;20015;-87
2021/12/02 00:32:55;;;;;;;4.18;1.48;;;5.40;94.80;;;;;;6248354;22;20004;-87
2021/12/02 00:35:43;;;;;;;6.25;1.42;;;5.40;94.80;;;;;;6235166;22;20067;-85
2021/12/02 00:41:46;;;;;;;5.75;1.88;;;5.50;94.80;;;;;;6230115;22;20422;-87
2021/12/02 00:44:37;;;;;;;;;;;;;;;;;;;;;
2021/12/02 00:47:37;;;;;;;5.10;1.40;;;5.50;94.80;;;;;;6277163;22;20079;-89
2021/12/02 00:50:44;;;;;;;;;;;;;;;;;;;;;
2021/12/02 00:53:42;;;;;;;;;;;;;;;;;;;;;
2021/12/02 01:00:18;;;;;;;2.42;0.80;;;5.50;94.90;;;;;;6207121;22;20479;-88
2021/12/02 01:03:18;;;;;;;;;;;5.50;94.90;;;;;;6240176;22;20003;-88
2021/12/02 01:05:53;;;;;;;6.90;1.30;;;5.50;94.90;;;;;;6276004;22;19965;-90
2021/12/02 01:08:28;;;;;;;4.55;1.20;;;5.50;94.90;;;;;;6250432;22;20099;-87
2021/12/02 01:14:31;;;;;;;;;;;;;;;;;;;;;
2021/12/02 01:17:01;;;;;;;9.52;2.10;;;5.60;95.00;;;;;;6277273;22;20083;-89
2021/12/02 01:19:57;;;;;;;;;;;;;;;;;;;;;
2021/12/02 01:22:48;;;;;;;10.35;1.42;;;5.50;94.90;;;;;;6254998;22;20083;-90
2021/12/02 01:25:32;;;;;;;;;;;;;;;;;;;;;
2021/12/02 01:31:43;;;;;;;3.20;1.25;;;5.40;94.90;;;;;;6269101;22;20003;-87
2021/12/02 01:34:51;;;;;;;8.35;1.92;;;5.40;94.90;;;;;;6228293;22;20422;-89
2021/12/02 01:38:28;;;;;;;;;;;;;;;;;;;;;
2021/12/02 01:40:52;;;;;;;;;;;5.30;95.00;;;;;;6244730;23;20004;-87
2021/12/02 01:43:55;;;;;;;4.78;1.30;;;5.20;94.90;;;;;;6246781;23;20233;-88
2021/12/02 01:46:41;;;;;;;2.47;1.10;;;5.10;95.00;;;;;;6247141;23;20087;-88
2021/12/02 01:49:43;;;;;;;;;;;;;;;;;;;;;
2021/12/02 01:52:36;;;;;;;3.60;1.15;;;5.00;95.20;;;;;;6248190;23;20078;-87
2021/12/02 01:55:31;;;;;;;5.40;1.58;;;5.00;95.20;;;;;;6252081;23;20000;-88
2021/12/02 01:58:49;;;;;;;5.10;1.33;;;5.00;95.30;;;;;;6240249;22;19992;-89
2021/12/02 02:01:28;;;;;;;4.65;1.65;;;5.00;95.40;;;;;;6269347;22;20016;-89
2021/12/02 02:04:13;;;;;;;5.57;1.27;;;5.00;95.50;;;;;;6246483;23;20000;-89
2021/12/02 02:07:11;;;;;;;5.72;1.30;;;5.00;95.50;;;;;;6255600;23;20003;-89
2021/12/02 02:10:19;;;;;;;3.17;0.75;;;5.10;95.60;;;;;;6239601;23;20092;-88
2021/12/02 02:13:09;;;;;;;2.40;0.80;;;5.20;95.70;;;;;;6221819;23;20004;-88
2021/12/02 02:16:01;;;;;;;2.40;0.90;;;5.20;95.60;;;;;;6221346;23;20000;-89
2021/12/02 02:18:40;;;;;;;2.58;0.63;;;5.30;95.60;;;;;;6247063;23;20004;-88
2021/12/02 02:21:24;;;;;;;;;;;;;;;;;;;;;
2021/12/02 02:24:10;;;;;;;;;;;;;;;;;;;;;
2021/12/02 02:27:23;;;;;;;1.35;0.63;;;5.20;95.60;;;;;;6224259;23;20083;-88
2021/12/02 02:30:19;;;;;;;3.22;0.70;;;5.30;95.60;;;;;;6221419;23;20016;-88
2021/12/02 02:32:58;;;;;;;;;;;;;;;;;;;;;
2021/12/02 02:35:47;;;;;;;2.72;0.63;;;5.20;95.60;;;;;;6223004;23;20095;-87
2021/12/02 02:38:26;;;;;;;3.03;0.82;;;5.20;95.60;;;;;;6246359;23;20015;-88
2021/12/02 02:41:00;;;;;;;3.25;0.77;;;5.10;95.50;;;;;;6222026;23;20011;-91
2021/12/02 02:43:42;;;;;;;;;;;;;;;;;;;;;
2021/12/02 02:46:54;;;;;;;2.40;0.88;;;5.10;95.60;;;;;;6247389;23;20079;-87
2021/12/02 02:49:50;;;;;;;2.35;0.75;;;5.10;95.60;;;;;;6189000;23;20513;-88
2021/12/02 02:52:44;;;;;;;6.30;0.98;;;5.10;95.60;;;;;;6221287;23;20074;-87
2021/12/02 03:02:04;;;;;;;3.88;0.75;;;5.10;95.70;;;;;;6248515;23;20008;-87
2021/12/02 03:07:34;;;;;;;3.88;1.40;;;5.10;96.00;;;;;;6257272;23;20000;-87
2021/12/02 03:10:40;;;;;;;;;;;;;;;;;;;;;
2021/12/02 03:13:35;;;;;;;1.95;0.70;;;5.10;95.70;;;;;;6228440;23;20377;-88
2021/12/02 03:20:21;;;;;;;;;;;;;;;;;;;;;
2021/12/02 03:25:50;;;;;;;2.75;0.52;;;5.10;95.80;;;;;;6243738;23;20008;-91
2021/12/02 03:29:11;;;;;;;3.33;0.98;;;5.10;95.80;;;;;;6270034;23;20039;-88
2021/12/02 03:31:49;;;;;;;3.25;0.55;;;5.20;95.80;;;;;;6261615;23;20004;-88
2021/12/02 03:34:38;;;;;;;2.03;0.60;;;5.20;95.70;;;;;;6227284;23;20008;-88
2021/12/02 03:37:19;;;;;;;;;;;;;;;;;;;;;
2021/12/02 03:39:59;;;;;;;2.30;0.60;;;5.20;95.60;;;;;;6253642;22;20075;-87
2021/12/02 03:43:07;;;;;;;;;;;;;;;;;;;;;
2021/12/02 03:46:17;;;;;;;;;;;;;;;;;;;;;
2021/12/02 03:48:54;;;;;;;1.77;0.90;;;5.20;95.60;;;;;;6278244;22;20095;-88
2021/12/02 03:51:36;;;;;;;1.85;0.60;;;5.20;95.50;;;;;;6250184;22;20003;-87
2021/12/02 03:54:02;;;;;;;2.13;0.40;;;5.20;95.60;;;;;;6275545;22;20099;-88
2021/12/02 03:56:48;;;;;;;2.83;0.75;;;5.20;95.50;;;;;;6276072;22;19995;-88
2021/12/02 03:59:46;;;;;;;3.15;0.50;;;5.20;95.50;;;;;;6250565;22;20042;-89
2021/12/02 04:02:45;;;;;;;2.67;0.50;;;5.20;95.70;;;;;;6256973;22;20007;-88
2021/12/02 04:05:25;;;;;;;;;;;;;;;;;;;;;
2021/12/02 04:08:14;;;;;;;2.00;0.30;;;5.10;95.40;;;;;;6253778;22;20083;-87
2021/12/02 04:17:06;;;;;;;2.95;0.57;;;5.00;95.40;;;;;;6184049;23;20390;-88
2021/12/02 04:19:59;;;;;;;;;;;;;;;;;;;;;
2021/12/02 04:22:35;;;;;;;1.52;0.47;;;5.00;95.40;;;;;;6183729;23;20091;-89
2021/12/02 04:25:03;;;;;;;1.77;0.40;;;5.00;95.40;;;;;;6183814;23;20394;-87
2021/12/02 04:27:56;;;;;;;;;;;;;;;;;;;;;
2021/12/02 04:30:51;;;;;;;;;;;;;;;;;;;;;
2021/12/02 04:33:32;;;;;;;;;;;;;;;;;;;;;
2021/12/02 04:39:15;;;;;;;1.98;0.60;;;5.00;95.50;;;;;;6139094;23;20089;-88
2021/12/02 04:42:26;;;;;;;2.45;0.38;;;5.00;95.60;;;;;;6150372;23;20321;-87
2021/12/02 04:45:16;;;;;;;1.77;0.43;;;5.00;95.60;;;;;;6200013;23;20344;-87
2021/12/02 04:47:54;;;;;;;;;;;;;;;;;;;;;
2021/12/02 04:50:22;;;;;;;1.65;0.35;;;5.00;95.50;;;;;;6225495;23;20087;-88
2021/12/02 04:56:29;;;;;;;1.10;0.30;;;4.90;95.50;;;;;;6233567;23;20020;-87
2021/12/02 04:59:31;;;;;;;1.25;0.30;;;4.90;95.50;;;;;;6245572;23;20075;-87
2021/12/02 05:02:09;;;;;;;2.17;0.65;;;5.00;95.60;;;;;;6232924;23;20008;-88
2021/12/02 05:04:44;;;;;;;1.90;0.65;;;5.00;95.60;;;;;;6221552;23;20006;-88
2021/12/02 05:07:19;;;;;;;4.47;0.68;;;5.00;95.50;;;;;;6245044;23;20000;-88
2021/12/02 05:10:35;;;;;;;;;;;;;;;;;;;;;
2021/12/02 05:13:47;;;;;;;2.50;0.90;;;5.00;95.50;;;;;;6246542;23;20083;-88
2021/12/02 05:16:29;;;;;;;;;;;;;;;;;;;;;
2021/12/02 05:19:11;;;;;;;2.03;0.85;;;4.90;95.50;;;;;;6246118;23;20080;-88
2021/12/02 05:21:42;;;;;;;5.57;1.10;;;4.90;95.50;;;;;;6245344;23;20425;-88
2021/12/02 05:24:14;;;;;;;;;;;4.90;95.60;;;;;;6245574;23;20004;-88
2021/12/02 05:26:48;;;;;;;3.45;1.10;;;4.90;95.60;;;;;;6219706;23;19933;-87
2021/12/02 05:29:37;;;;;;;3.67;0.93;;;4.90;95.60;;;;;;6244670;23;20083;-88
2021/12/02 05:32:04;;;;;;;4.32;1.17;;;4.90;95.60;;;;;;6225051;23;20004;-88
2021/12/02 05:34:48;;;;;;;3.78;1.25;;;4.90;95.60;;;;;;6221334;22;20012;-88
2021/12/02 05:37:17;;;;;;;5.40;1.70;;;4.90;95.60;;;;;;6197095;23;20012;-88
2021/12/02 05:40:08;;;;;;;2.80;1.13;;;4.90;95.50;;;;;;6221519;23;20074;-88
2021/12/02 05:43:11;;;;;;;;;;;;;;;;;;;;;
2021/12/02 05:45:45;;;;;;;2.17;0.70;;;4.80;95.60;;;;;;6225738;23;20080;-89
2021/12/02 05:48:16;;;;;;;1.13;0.60;;;4.80;95.60;;;;;;6198323;23;20020;-87
2021/12/02 05:50:54;;;;;;;;;;;;;;;;;;;;;
2021/12/02 05:53:45;;;;;;;3.63;0.70;;;4.80;95.60;;;;;;6248185;23;20052;-88
2021/12/02 05:56:36;;;;;;;1.87;0.60;;;4.80;95.70;;;;;;6247501;23;20329;-90
2021/12/02 05:59:24;;;;;;;1.13;0.30;;;4.80;95.60;;;;;;6192638;23;20237;-88
2021/12/02 06:08:04;;;;;;;2.72;0.70;;;4.70;95.50;;;;;;6186483;23;20009;-91
2021/12/02 06:10:43;;;;;;;2.22;0.50;;;4.70;95.50;;;;;;6185694;23;20151;-90
2021/12/02 06:13:29;;;;;;;1.30;0.45;;;4.70;95.50;;;;;;6219975;23;20087;-90
2021/12/02 06:16:21;;;;;;;;;;;;;;;;;;;;;
2021/12/02 06:29:58;;;;;;;;;;;;;;;;;;;;;
2021/12/02 06:32:42;;;;;;;3.33;0.60;;;4.40;95.50;;;;;;6114635;23;20081;-89
2021/12/02 06:35:17;;;;;;;1.48;0.68;;;4.50;95.60;;;;;;6126006;23;20472;-89
2021/12/02 06:41:55;;;;;;;0.75;0.32;;;4.50;95.60;;;;;;6084965;23;20085;-90
2021/12/02 06:44:21;;;;;;;2.95;0.60;;;4.50;95.60;;;;;;6124170;23;20029;-89
2021/12/02 06:47:13;;;;;;;1.92;0.40;;;4.50;95.60;;;;;;6161896;23;20437;-90
2021/12/02 06:49:49;;;;;;;2.25;0.52;;;4.50;95.60;;;;;;6220904;23;20015;-88
2021/12/02 06:52:23;;;;;;;2.25;0.43;;;4.50;95.60;;;;;;6196629;23;20015;-88
2021/12/02 06:55:23;;;;;;;2.22;0.68;;;4.50;95.60;;;;;;6221469;23;20062;-88
2021/12/02 06:58:06;;;;;;;1.20;0.82;;;4.50;95.50;;;;;;6198399;23;20008;-89
2021/12/02 07:01:16;;;;;;;2.05;0.50;;;4.40;95.50;;;;;;6196175;23;20465;-90
2021/12/02 07:04:13;;;;;;;;;;;;;;;;;;;;;
2021/12/02 07:09:41;;;;;;;1.90;0.40;;;4.30;95.40;;;;;;6221146;23;20014;-90
2021/12/02 07:12:28;;;;;;;;;;;;;;;;;;;;;
2021/12/02 07:15:31;;;;;;;2.50;0.60;;;4.20;95.40;;;;;;6247479;23;20079;-91
2021/12/02 07:18:52;;;;;;;;;;;;;;;;;;;;;
2021/12/02 07:21:27;;;;;;;3.08;0.50;;;4.10;95.40;;;;;;6247189;23;20011;-90
2021/12/02 07:24:15;;;;;;;1.90;0.93;;;4.10;95.40;;;;;;6197216;23;20035;-90
2021/12/02 07:26:46;;;;;;;1.67;0.60;;;4.10;95.30;;;;;;6221113;23;20008;-89
2021/12/02 07:29:46;;;;;;;1.65;0.55;;;4.10;95.40;;;;;;6195955;23;20043;-90
2021/12/02 07:32:23;;;;;;;1.42;0.60;;;4.00;95.40;;;;;;6245637;23;20008;-90
2021/12/02 07:38:08;;;;;;;1.95;0.80;;;4.00;95.50;;;;;;6249025;23;20008;-89
2021/12/02 07:41:35;;;;;;;1.63;0.80;;;4.00;95.50;;;;;;6223244;23;20005;-91
2021/12/02 07:44:50;;;;;;;;;;;;;;;;;;;;;
2021/12/02 07:48:03;;;;;;;;;;;;;;;;;;;;;
2021/12/02 07:53:46;;;;;;;3.60;1.17;;;4.00;95.50;;;;;;6226049;23;20004;-91
2021/12/02 07:56:55;;;;;;;2.40;1.45;;;4.00;95.60;;;;;;6224983;23;20087;-91
2021/12/02 07:59:52;;;;;;;2.58;1.40;;;4.00;95.60;;;;;;6220025;23;20569;-92
2021/12/02 08:02:35;;;;;;;;;;;;;;;;;;;;;
2021/12/02 08:05:31;;;;;;;;;;;;;;;;;;;;;
2021/12/02 08:08:50;;;;;;;;;;;;;;;;;;;;;
2021/12/02 08:11:59;;;;;;;3.95;1.85;;;4.10;95.70;;;;;;6223810;23;20075;-90
2021/12/02 08:14:59;;;;;;;;;;;;;;;;;;;;;
2021/12/02 08:17:46;;;;;;;;;;;;;;;;;;;;;
2021/12/02 08:21:01;;;;;;;;;;;;;;;;;;;;;
2021/12/02 08:24:25;;;;;;;6.30;2.47;;;4.30;95.90;;;;;;6247175;23;20080;-92
2021/12/02 08:27:20;;;;;;;5.40;2.90;;;4.30;96.10;;;;;;6199396;23;20004;-91
2021/12/02 08:30:27;;;;;;;;;;;;;;;;;;;;;
2021/12/02 08:37:11;;;;;;;;;;;;;;;;;;;;;
2021/12/02 08:40:16;;;;;;;;;;;;;;;;;;;;;
2021/12/02 08:42:45;;;;;;;;;;;4.50;95.90;;;;;;6278494;22;20473;-91
2021/12/02 08:45:56;;;;;;;;;;;;;;;;;;;;;
2021/12/02 08:49:10;;;;;;;3.85;2.33;;;4.60;95.80;;;;;;6273960;22;20083;-92
2021/12/02 08:52:05;;;;;;;3.78;2.30;;;4.60;95.90;;;;;;6271412;22;20380;-92
2021/12/02 08:54:50;;;;;;;5.63;1.90;;;4.70;95.80;;;;;;6276555;22;20000;-91
2021/12/02 08:57:52;;;;;;;4.38;1.90;;;4.70;95.80;;;;;;6276712;22;20003;-90
2021/12/02 09:00:59;;;;;;;;;;;;;;;;;;;;;
2021/12/02 09:04:08;;;;;;;;;;;;;;;;;;;;;
2021/12/02 09:10:22;;;;;;;;;;;;;;;;;;;;;
2021/12/02 09:13:18;;;;;;;3.53;1.77;;;4.80;95.80;;;;;;6283763;22;20049;-90
2021/12/02 09:25:50;;;;;;;;;;;;;;;;;;;;;
2021/12/02 09:28:27;;;;;;;4.00;1.50;;;5.00;95.70;;;;;;6069052;23;20093;-89
2021/12/02 09:31:03;;;;;;;4.15;1.30;;;5.00;95.70;;;;;;6084013;23;20013;-89
2021/12/02 09:33:47;;;;;;;3.05;1.30;;;4.90;95.70;;;;;;6159875;22;20023;-88
2021/12/02 09:39:41;;;;;;;;;;;;;;;;;;;;;
2021/12/02 09:42:28;;;;;;;;;;;;;;;;;;;;;
2021/12/02 09:45:02;;;;;;;2.85;1.15;;;5.00;95.60;;;;;;6225901;23;20079;-88
2021/12/02 09:51:45;;;;;;;;;;;;;;;;;;;;;
2021/12/02 09:53:52;;;;;;;3.20;1.00;;;5.20;95.60;;;;;;6216921;23;20004;-88
2021/12/02 09:56:31;;;;;;;1.92;0.90;;;5.20;95.60;;;;;;6248673;23;19996;-89
2021/12/02 09:59:24;;;;;;;2.10;0.80;;;5.20;95.50;;;;;;6247696;23;20330;-91
2021/12/02 10:02:04;;;;;;;4.00;0.90;;;5.30;95.50;;;;;;6247233;23;20000;-89
2021/12/02 10:04:39;;;;;;;3.17;0.77;;;5.30;95.40;;;;;;6248673;23;20000;-90
2021/12/02 10:13:35;;;;;;;0.55;0.40;;;5.40;95.30;;;;;;6225099;23;20015;-89
2021/12/02 10:16:32;;;;;;;0.98;0.47;;;5.40;95.30;;;;;;6248890;23;20004;-91
2021/12/02 10:22:03;;;;;;;2.38;0.70;;;5.30;95.20;;;;;;6259826;23;20062;-91
2021/12/02 10:34:18;;;;;;;2.67;0.57;;;5.30;95.00;;;;;;6173602;23;20007;-91
2021/12/02 10:37:00;;;;;;;;;;;;;;;;;;;;;
2021/12/02 10:40:11;;;;;;;;;;;;;;;;;;;;;
2021/12/02 10:43:18;;;;;;;;;;;;;;;;;;;;;
2021/12/02 10:45:56;;;;;;;5.35;2.58;;;5.10;95.00;;;;;;6214026;23;20004;-90
2021/12/02 10:52:24;;;;;;;;;;;;;;;;;;;;;
2021/12/02 10:59:03;;;;;;;;;;;;;;;;;;;;;
2021/12/02 11:02:23;;;;;;;1.55;0.60;;;5.30;95.10;;;;;;6239285;23;20079;-89
2021/12/02 11:06:07;;;;;;;;;;;;;;;;;;;;;
2021/12/02 11:22:37;;;;;;;2.55;0.82;;;5.80;95.00;;;;;;6135126;23;20516;-91
2021/12/02 11:26:11;;;;;;;;;;;;;;;;;;;;;
2021/12/02 11:43:47;;;;;;;;;;;;;;;;;;;;;
2021/12/02 11:57:21;;;;;;;4.80;0.70;;;6.20;94.50;;;;;;5901941;24;20070;-90
2021/12/02 12:00:02;;;;;;;2.33;0.60;;;6.20;94.40;;;;;;5941879;24;20024;-90
2021/12/02 12:02:49;;;;;;;;;;;;;;;;;;;;;
2021/12/02 12:13:05;;;;;;;;;;;6.20;94.40;;;;;;6017789;23;20012;-90
2021/12/02 12:16:06;;;;;;;1.85;0.50;;;6.20;94.30;;;;;;6036544;23;19910;-91
2021/12/02 12:18:47;;;;;;;1.40;0.55;;;6.20;94.20;;;;;;6037506;23;20010;-89
2021/12/02 12:22:12;;;;;;;;;;;;;;;;;;;;;
2021/12/02 12:25:26;;;;;;;;;;;;;;;;;;;;;
2021/12/02 12:28:14;;;;;;;0.50;0.40;;;6.10;94.10;;;;;;6248690;22;20100;-92
2021/12/02 12:31:05;;;;;;;0.40;0.30;;;6.10;94.30;;;;;;6237766;23;20068;-91
2021/12/02 12:34:02;;;;;;;1.13;0.40;;;6.10;94.10;;;;;;6247823;22;20020;-90
2021/12/02 12:44:19;;;;;;;2.00;0.60;;;6.00;93.80;;;;;;6197270;23;20083;-92
2021/12/02 12:57:55;;;;;;;0.68;0.30;;;6.00;93.80;;;;;;5953614;24;20031;-94
2021/12/02 13:01:09;;;;;;;;;;;;;;;;;;;;;
2021/12/02 13:08:03;;;;;;;;;;;;;;;;;;;;;
2021/12/02 13:18:19;;;;;;;0.95;0.52;;;5.90;93.40;;;;;;5953990;24;20008;-92
2021/12/02 13:28:39;;;;;;;2.22;1.05;;;5.90;93.60;;;;;;6067464;23;20014;-92
2021/12/02 13:31:50;;;;;;;;;;;;;;;;;;;;;
2021/12/02 13:39:02;;;;;;;;;;;;;;;;;;;;;
2021/12/02 13:42:20;;;;;;;0.80;0.50;;;5.90;93.30;;;;;;6013871;23;20056;-92
2021/12/02 14:02:34;;;;;;;3.67;0.80;;;6.00;93.40;;;;;;6068559;23;20141;-91
2021/12/02 14:06:09;;;;;;;;;;;;;;;;;;;;;
2021/12/02 14:09:18;;;;;;;2.55;0.80;;;6.00;93.50;;;;;;6121808;23;20084;-90
2021/12/02 14:12:28;;;;;;;;;;;;;;;;;;;;;
2021/12/02 14:25:23;;;;;;;;;;;;;;;;;;;;;
2021/12/02 14:31:25;;;;;;;2.35;0.90;;;5.90;93.00;;;;;;6257104;22;20091;-91
2021/12/02 14:34:25;;;;;;;;;;;;;;;;;;;;;
2021/12/02 14:37:55;;;;;;;2.33;1.08;;;6.00;93.00;;;;;;6267388;22;20090;-90
2021/12/02 14:41:13;;;;;;;4.38;1.20;;;6.00;92.80;;;;;;6247948;23;20087;-88
2021/12/02 14:47:08;;;;;;;4.10;0.93;;;5.80;92.70;;;;;;6140310;23;20011;-89
2021/12/02 14:52:58;;;;;;;;;;;;;;;;;;;;;
2021/12/02 15:05:58;;;;;;;;;;;;;;;;;;;;;
2021/12/02 15:12:33;;;;;;;2.97;1.27;;;5.60;93.20;;;;;;6245575;22;19992;-88
2021/12/02 15:15:04;;;;;;;2.45;1.23;;;5.60;93.20;;;;;;6232603;22;20000;-88
2021/12/02 15:25:02;;;;;;;2.50;1.30;;;5.50;93.40;;;;;;6183530;23;20004;-90
2021/12/02 15:31:10;;;;;;;4.75;1.48;;;5.30;93.40;;;;;;6132168;23;20014;-88
2021/12/02 15:34:13;;;;;;;;;;;;;;;;;;;;;
2021/12/02 15:43:52;;;;;;;2.65;1.77;;;5.20;93.70;;;;;;6240658;23;20799;-87
2021/12/02 15:46:41;;;;;;;;;;;;;;;;;;;;;
2021/12/02 15:49:15;;;;;;;2.55;1.50;;;5.10;93.80;;;;;;6247109;23;20090;-88
2021/12/02 15:52:03;;;;;;;3.97;1.70;;;5.00;93.80;;;;;;6217324;23;20442;-88
2021/12/02 15:57:48;;;;;;;3.30;1.67;;;4.90;93.90;;;;;;6153860;23;20006;-89
2021/12/02 16:03:54;;;;;;;;;;;;;;;;;;;;;
2021/12/02 16:14:11;;;;;;;;;;;;;;;;;;;;;
2021/12/02 16:23:51;;;;;;;8.48;2.90;;;4.40;94.40;;;;;;6154450;23;20002;-90
2021/12/02 16:30:43;;;;;;;;;;;;;;;;;;;;;
2021/12/02 16:33:13;;;;;;;6.25;2.20;;;4.20;94.40;;;;;;6235801;23;20450;-87
2021/12/02 16:36:11;;;;;;;;;;;;;;;;;;;;;
2021/12/02 16:39:20;;;;;;;;;;;;;;;;;;;;;
2021/12/02 16:46:03;;;;;;;;;;;;;;;;;;;;;
2021/12/02 16:49:22;;;;;;;;;;;;;;;;;;;;;
2021/12/02 16:55:35;;;;;;;4.57;2.55;;;3.70;94.40;;;;;;6183544;23;20005;-89
2021/12/02 16:58:15;;;;;;;3.58;2.10;;;3.70;94.50;;;;;;6208748;23;20429;-87
2021/12/02 17:01:12;;;;;;;5.13;2.33;;;3.60;94.50;;;;;;6220820;23;20023;-88
2021/12/02 17:11:02;;;;;;;4.10;2.75;;;3.50;94.60;;;;;;6176145;23;20333;-89
2021/12/02 17:14:14;;;;;;;;;;;;;;;;;;;;;
2021/12/02 17:16:56;;;;;;;4.07;2.70;;;3.40;94.60;;;;;;6246269;23;20064;-87
2021/12/02 17:19:56;;;;;;;;;;;;;;;;;;;;;
2021/12/02 17:22:43;;;;;;;6.28;3.08;;;3.20;94.60;;;;;;6222246;23;20072;-89
2021/12/02 17:28:50;;;;;;;7.28;3.55;;;3.20;94.60;;;;;;6221388;23;20008;-87
2021/12/02 17:31:30;;;;;;;5.80;3.33;;;3.10;94.60;;;;;;6246637;23;20008;-87
2021/12/02 17:34:17;;;;;;;5.50;3.47;;;3.10;94.70;;;;;;6246732;23;20001;-88
2021/12/02 17:37:26;;;;;;;;;;;;;;;;;;;;;
2021/12/02 17:50:24;;;;;;;5.95;3.60;;;3.00;95.00;;;;;;6200444;23;20375;-88
2021/12/02 17:53:36;;;;;;;;;;;;;;;;;;;;;
2021/12/02 17:59:33;;;;;;;;;;;;;;;;;;;;;
2021/12/02 18:02:14;;;;;;;6.40;3.78;;;2.90;95.10;;;;;;6264840;23;19991;-88
2021/12/02 18:05:13;;;;;;;5.60;3.30;;;2.90;95.40;;;;;;6273982;22;20003;-89
2021/12/02 18:10:45;;;;;;;6.38;3.60;;;2.90;95.20;;;;;;6266331;23;20326;-88
2021/12/02 18:17:25;;;;;;;;;;;;;;;;;;;;;
2021/12/02 18:20:33;;;;;;;;;;;;;;;;;;;;;
2021/12/02 18:23:42;;;;;;;;;;;;;;;;;;;;;
2021/12/02 18:29:43;;;;;;;;;;;;;;;;;;;;;
2021/12/02 18:32:12;;;;;;;10.18;4.78;;;2.80;95.30;;;;;;6155478;23;20065;-89
2021/12/02 18:35:03;;;;;;;;;;;;;;;;;;;;;
2021/12/02 18:45:53;;;;;;;;;;;;;;;;;;;;;
2021/12/02 18:55:12;;;;;;;;;;;;;;;;;;;;;
2021/12/02 18:58:06;;;;;;;;;;;;;;;;;;;;;
2021/12/02 19:02:01;;;;;;;;;;;;;;;;;;;;;
2021/12/02 19:04:52;;;;;;;6.88;4.28;;;2.60;95.30;;;;;;6031066;23;20083;-90
2021/12/02 19:29:40;;;;;;;;;;;;;;;;;;;;;
2021/12/02 19:32:37;;;;;;;;;;;;;;;;;;;;;
2021/12/02 19:50:23;;;;;;;;;;;;;;;;;;;;;
2021/12/02 20:03:53;;;;;;;6.82;3.25;;;2.30;95.50;;;;;;5986101;23;20003;-90
2021/12/02 20:10:27;;;;;;;;;;;;;;;;;;;;;
2021/12/02 20:17:21;;;;;;;;;;;;;;;;;;;;;
2021/12/02 20:27:28;;;;;;;;;;;;;;;;;;;;;
2021/12/02 20:30:26;;;;;;;;;;;;;;;;;;;;;
2021/12/02 20:37:44;;;;;;;;;;;;;;;;;;;;;
2021/12/02 20:40:52;;;;;;;7.53;4.68;;;2.20;95.40;;;;;;6009823;23;20094;-89
2021/12/02 20:47:31;;;;;;;8.48;5.05;;;2.20;95.40;;;;;;6000050;23;20012;-89
2021/12/02 20:50:29;;;;;;;9.77;4.78;;;2.10;95.40;;;;;;6024015;23;20019;-89
2021/12/02 20:53:37;;;;;;;;;;;;;;;;;;;;;
2021/12/02 20:56:59;;;;;;;;;;;;;;;;;;;;;
2021/12/02 21:03:35;;;;;;;7.95;4.10;;;2.10;95.40;;;;;;6102086;22;20007;-89
2021/12/02 21:06:39;;;;;;;5.80;4.53;;;2.10;95.40;;;;;;6217252;22;20007;-89
2021/12/02 21:10:03;;;;;;;;;;;;;;;;;;;;;
2021/12/02 21:13:05;;;;;;;;;;;;;;;;;;;;;
2021/12/02 21:15:50;;;;;;;;;;;;;;;;;;;;;
2021/12/02 21:18:44;;;;;;;;;;;;;;;;;;;;;
2021/12/02 21:24:30;;;;;;;8.80;5.07;;;1.90;95.70;;;;;;6265024;22;20106;-87
2021/12/02 21:27:19;;;;;;;8.90;4.80;;;1.90;95.40;;;;;;6275544;22;20004;-89
2021/12/02 21:30:32;;;;;;;;;;;;;;;;;;;;;
2021/12/02 21:33:38;;;;;;;;;;;;;;;;;;;;;
2021/12/02 21:36:24;;;;;;;;;;;;;;;;;;;;;
2021/12/02 21:39:19;;;;;;;;;;;;;;;;;;;;;
2021/12/02 21:42:27;;;;;;;7.35;4.43;;;1.80;95.40;;;;;;6246820;23;20099;-89
2021/12/02 21:45:25;;;;;;;;;;;;;;;;;;;;;
2021/12/02 21:48:18;;;;;;;;;;;;;;;;;;;;;
2021/12/02 21:51:14;;;;;;;7.43;3.40;;;1.90;95.50;;;;;;6224512;23;20103;-88
2021/12/02 22:00:58;;;;;;;;;;;;;;;;;;;;;
2021/12/02 22:04:07;;;;;;;;;;;;;;;;;;;;;
2021/12/02 22:07:22;;;;;;;6.82;3.28;;;1.90;95.50;;;;;;6241561;23;20087;-89
2021/12/02 22:13:21;;;;;;;;;;;;;;;;;;;;;
2021/12/02 22:16:14;;;;;;;6.30;3.47;;;1.90;95.50;;;;;;6273645;23;20453;-88
2021/12/02 22:19:10;;;;;;;6.45;3.33;;;1.90;95.50;;;;;;6247229;23;20072;-89
2021/12/02 22:25:09;;;;;;;7.68;3.80;;;1.90;95.50;;;;;;6248311;23;20334;-88
2021/12/02 22:28:04;;;;;;;;;;;;;;;;;;;;;
2021/12/02 22:30:39;;;;;;;6.43;3.67;;;1.90;95.50;;;;;;6223825;23;20493;-90
2021/12/02 22:33:41;;;;;;;7.63;3.95;;;1.90;95.50;;;;;;6246453;23;20004;-88
2021/12/02 22:36:25;;;;;;;;;;;;;;;;;;;;;
2021/12/02 22:42:41;;;;;;;;;;;;;;;;;;;;;
2021/12/02 22:45:30;;;;;;;;;;;;;;;;;;;;;
2021/12/02 22:48:08;;;;;;;;;;;;;;;;;;;;;
2021/12/02 22:54:23;;;;;;;;;;;;;;;;;;;;;
2021/12/02 22:57:15;;;;;;;7.43;3.97;;;1.90;95.50;;;;;;6244364;23;20076;-88
2021/12/02 23:02:29;;;;;;;6.68;3.55;;;1.80;95.50;;;;;;6248253;23;20099;-88
2021/12/02 23:05:10;;;;;;;5.07;3.67;;;1.80;95.50;;;;;;6246596;23;20008;-87
2021/12/02 23:07:58;;;;;;;6.50;3.60;;;1.70;95.50;;;;;;6221628;23;20004;-87
2021/12/02 23:10:48;;;;;;;4.07;3.15;;;1.80;95.50;;;;;;6246126;23;20023;-86
2021/12/02 23:13:22;;;;;;;7.13;3.47;;;1.70;95.50;;;;;;6220123;23;20000;-87
2021/12/02 23:16:20;;;;;;;8.48;3.75;;;1.70;95.50;;;;;;6221098;23;20082;-88
2021/12/02 23:18:52;;;;;;;;;;;;;;;;;;;;;
2021/12/02 23:21:24;;;;;;;4.57;3.15;;;1.70;95.60;;;;;;6248346;23;20075;-88
2021/12/02 23:24:25;;;;;;;;;;;;;;;;;;;;;
2021/12/02 23:27:00;;;;;;;;;;;1.70;95.60;;;;;;6249129;23;20079;-87
2021/12/02 23:29:43;;;;;;;4.53;3.40;;;1.70;95.60;;;;;;6272573;22;19943;-88
2021/12/02 23:32:27;;;;;;;6.18;3.05;;;1.70;95.60;;;;;;6247365;23;20092;-87
2021/12/02 23:38:20;;;;;;;8.48;3.22;;;1.70;95.60;;;;;;6234564;23;20410;-88
2021/12/02 23:41:06;;;;;;;5.50;3.13;;;1.60;95.60;;;;;;6256021;22;20016;-87
2021/12/02 23:43:36;;;;;;;5.38;3.33;;;1.70;95.60;;;;;;6224118;23;20015;-87
2021/12/02 23:46:20;;;;;;;7.28;3.70;;;1.60;95.60;;;;;;6248829;23;20410;-88
2021/12/02 23:49:03;;;;;;;6.13;3.60;;;1.70;95.60;;;;;;6246592;23;20099;-87
2021/12/02 23:51:46;;;;;;;5.70;3.35;;;1.60;95.60;;;;;;6248203;23;20028;-87
2021/12/02 23:54:32;;;;;;;;;;;;;;;;;;;;;
2021/12/02 23:57:50;;;;;;;4.63;3.67;;;1.60;95.60;;;;;;6224424;23;20071;-88
